createdAt,value
2018-01-28T00:00:35.917Z,13.70
2018-01-28T00:03:04.657Z,13.80
2018-01-28T00:05:40.174Z,13.80
2018-01-28T00:08:08.829Z,13.80
2018-01-28T00:10:37.556Z,13.90
2018-01-28T00:13:05.936Z,13.90
2018-01-28T00:15:34.270Z,13.90
2018-01-28T00:18:02.603Z,13.90
2018-01-28T00:20:30.998Z,14.00
2018-01-28T00:22:59.366Z,14.00
2018-01-28T00:25:27.711Z,14.00
2018-01-28T00:27:56.111Z,14.00
2018-01-28T00:30:24.443Z,14.00
2018-01-28T00:32:53.054Z,14.00
2018-01-28T00:35:21.436Z,14.00
2018-01-28T00:37:49.857Z,14.10
2018-01-28T00:40:18.416Z,14.10
2018-01-28T00:42:46.775Z,14.10
2018-01-28T00:45:15.110Z,14.10
2018-01-28T00:47:43.474Z,14.10
2018-01-28T00:50:12.088Z,14.10
2018-01-28T00:52:40.640Z,14.10
2018-01-28T00:55:08.977Z,14.10
2018-01-28T00:57:38.086Z,14.10
2018-01-28T01:00:06.420Z,14.10
2018-01-28T01:02:35.031Z,14.10
2018-01-28T01:05:03.452Z,14.10
2018-01-28T01:07:31.805Z,14.10
2018-01-28T01:10:00.121Z,14.10
2018-01-28T01:12:28.813Z,14.10
2018-01-28T01:14:57.148Z,14.10
2018-01-28T01:17:25.550Z,14.10
2018-01-28T01:19:53.989Z,14.10
2018-01-28T01:22:22.325Z,14.10
2018-01-28T01:24:50.662Z,14.20
2018-01-28T01:27:19.046Z,14.20
2018-01-28T01:29:47.374Z,14.20
2018-01-28T01:32:15.756Z,14.10
2018-01-28T01:34:44.520Z,14.20
2018-01-28T01:37:12.852Z,14.20
2018-01-28T01:39:41.178Z,14.20
2018-01-28T01:42:09.529Z,14.20
2018-01-28T01:44:37.864Z,14.20
2018-01-28T01:47:06.602Z,14.20
2018-01-28T01:49:35.726Z,14.20
2018-01-28T01:52:04.445Z,14.20
2018-01-28T01:54:32.773Z,14.20
2018-01-28T01:57:01.141Z,14.20
2018-01-28T01:59:29.554Z,14.20
2018-01-28T02:01:58.273Z,14.20
2018-01-28T02:04:26.722Z,14.20
2018-01-28T02:06:55.435Z,14.20
2018-01-28T02:09:23.792Z,14.20
2018-01-28T02:11:52.869Z,14.20
2018-01-28T02:14:21.217Z,14.20
2018-01-28T02:16:49.534Z,14.20
2018-01-28T02:19:18.325Z,14.20
2018-01-28T02:21:47.066Z,14.20
2018-01-28T02:24:15.410Z,14.20
2018-01-28T02:26:43.784Z,14.20
2018-01-28T02:29:12.097Z,14.20
2018-01-28T02:31:40.717Z,14.20
2018-01-28T02:34:09.182Z,14.20
2018-01-28T02:36:37.523Z,14.20
2018-01-28T02:39:05.866Z,14.20
2018-01-28T02:41:34.642Z,14.20
2018-01-28T02:44:02.965Z,14.20
2018-01-28T02:46:31.321Z,14.20
2018-01-28T02:48:59.675Z,14.20
2018-01-28T02:51:27.989Z,14.20
2018-01-28T02:53:56.348Z,14.20
2018-01-28T02:56:25.125Z,14.20
2018-01-28T02:58:53.909Z,14.20
2018-01-28T03:01:22.636Z,14.20
2018-01-28T03:03:51.017Z,14.20
2018-01-28T03:06:19.420Z,14.20
2018-01-28T03:08:47.755Z,14.20
2018-01-28T03:11:16.102Z,14.20
2018-01-28T03:13:44.454Z,14.20
2018-01-28T03:16:12.775Z,14.20
2018-01-28T03:18:41.365Z,14.20
2018-01-28T03:21:10.125Z,14.20
2018-01-28T03:23:38.449Z,14.20
2018-01-28T03:26:06.809Z,14.20
2018-01-28T03:28:35.650Z,14.20
2018-01-28T03:31:04.405Z,14.20
2018-01-28T03:33:32.782Z,14.20
2018-01-28T03:36:01.118Z,14.20
2018-01-28T03:38:29.461Z,14.20
2018-01-28T03:40:57.940Z,14.20
2018-01-28T03:43:26.417Z,14.20
2018-01-28T03:45:54.815Z,14.20
2018-01-28T03:48:23.280Z,14.20
2018-01-28T03:50:51.598Z,14.20
2018-01-28T03:53:20.169Z,14.20
2018-01-28T03:55:48.547Z,14.30
2018-01-28T03:58:16.871Z,14.30
2018-01-28T04:00:45.230Z,14.30
2018-01-28T04:03:14.092Z,14.30
2018-01-28T04:05:42.825Z,14.30
2018-01-28T04:08:11.154Z,14.30
2018-01-28T04:10:39.505Z,14.30
2018-01-28T04:13:07.845Z,14.30
2018-01-28T04:15:36.171Z,14.30
2018-01-28T04:18:04.540Z,14.30
2018-01-28T04:20:32.888Z,14.30
2018-01-28T04:23:01.273Z,14.30
2018-01-28T04:25:29.649Z,14.30
2018-01-28T04:27:57.990Z,14.30
2018-01-28T04:30:26.307Z,14.30
2018-01-28T04:32:54.656Z,14.30
2018-01-28T04:35:23.374Z,14.30
2018-01-28T04:37:51.781Z,14.30
2018-01-28T04:40:20.113Z,14.30
2018-01-28T04:42:48.451Z,14.30
2018-01-28T04:45:16.817Z,14.30
2018-01-28T04:47:45.146Z,14.30
2018-01-28T04:50:13.488Z,14.30
2018-01-28T04:52:41.889Z,14.30
2018-01-28T04:55:10.861Z,14.30
2018-01-28T04:57:39.177Z,14.30
2018-01-28T05:00:07.528Z,14.30
2018-01-28T05:02:35.877Z,14.30
2018-01-28T05:05:04.662Z,14.30
2018-01-28T05:07:33.277Z,14.30
2018-01-28T05:10:02.023Z,14.30
2018-01-28T05:12:30.641Z,14.30
2018-01-28T05:14:58.956Z,14.30
2018-01-28T05:17:27.324Z,14.30
2018-01-28T05:19:55.651Z,14.30
2018-01-28T05:22:24.027Z,14.30
2018-01-28T05:24:52.373Z,14.30
2018-01-28T05:27:21.014Z,14.20
2018-01-28T05:29:49.362Z,14.20
2018-01-28T05:32:17.752Z,14.20
2018-01-28T05:34:46.088Z,14.20
2018-01-28T05:37:14.497Z,14.20
2018-01-28T05:39:43.057Z,14.30
2018-01-28T05:42:11.469Z,14.30
2018-01-28T05:44:40.234Z,14.30
2018-01-28T05:47:08.589Z,14.20
2018-01-28T05:49:36.934Z,14.30
2018-01-28T05:52:05.289Z,14.30
2018-01-28T05:54:33.606Z,14.20
2018-01-28T05:57:02.332Z,14.30
2018-01-28T05:59:30.958Z,14.30
2018-01-28T06:01:59.276Z,14.30
2018-01-28T06:04:27.609Z,14.30
2018-01-28T06:06:59.369Z,14.30
2018-01-28T06:09:28.362Z,14.30
2018-01-28T06:11:56.725Z,14.30
2018-01-28T06:14:25.097Z,14.30
2018-01-28T06:16:53.702Z,14.30
2018-01-28T06:19:22.032Z,14.30
2018-01-28T06:21:50.426Z,14.30
2018-01-28T06:24:18.742Z,14.30
2018-01-28T06:26:47.483Z,14.30
2018-01-28T06:29:16.109Z,14.30
2018-01-28T06:31:44.866Z,14.30
2018-01-28T06:34:13.230Z,14.30
2018-01-28T06:36:41.856Z,14.30
2018-01-28T06:39:10.214Z,14.30
2018-01-28T06:41:38.563Z,14.30
2018-01-28T06:44:06.894Z,14.30
2018-01-28T06:46:35.278Z,14.30
2018-01-28T06:49:04.017Z,14.30
2018-01-28T06:51:32.334Z,14.30
2018-01-28T06:54:00.947Z,14.30
2018-01-28T06:56:29.272Z,14.30
2018-01-28T06:58:57.617Z,14.30
2018-01-28T07:01:26.001Z,14.30
2018-01-28T07:03:54.367Z,14.30
2018-01-28T07:06:22.721Z,14.30
2018-01-28T07:08:51.461Z,14.30
2018-01-28T07:11:19.809Z,14.30
2018-01-28T07:13:48.159Z,14.30
2018-01-28T07:16:16.511Z,14.30
2018-01-28T07:18:44.843Z,14.30
2018-01-28T07:21:13.303Z,14.30
2018-01-28T07:23:42.045Z,14.30
2018-01-28T07:26:10.361Z,14.30
2018-01-28T07:28:38.723Z,14.30
2018-01-28T07:31:07.101Z,14.30
2018-01-28T07:33:35.788Z,14.30
2018-01-28T07:36:04.171Z,14.30
2018-01-28T07:38:32.562Z,14.40
2018-01-28T07:41:01.282Z,14.40
2018-01-28T07:43:29.644Z,14.40
2018-01-28T07:45:58.019Z,14.40
2018-01-28T07:48:26.609Z,14.40
2018-01-28T07:50:55.057Z,14.40
2018-01-28T07:53:23.433Z,14.40
2018-01-28T07:55:52.012Z,14.40
2018-01-28T07:58:20.397Z,14.40
2018-01-28T08:00:49.055Z,14.40
2018-01-28T08:03:17.397Z,14.40
2018-01-28T08:05:45.716Z,14.40
2018-01-28T08:08:15.477Z,14.40
2018-01-28T08:10:59.602Z,14.40
2018-01-28T08:16:27.737Z,14.50
2018-01-28T08:18:56.109Z,14.40
2018-01-28T08:21:24.453Z,14.40
2018-01-28T08:23:53.179Z,14.50
2018-01-28T08:26:22.275Z,14.50
2018-01-28T08:28:56.640Z,14.50
2018-01-28T08:31:24.972Z,14.50
2018-01-28T08:33:53.319Z,14.50
2018-01-28T08:36:22.046Z,14.70
2018-01-28T08:38:50.393Z,14.70
2018-01-28T08:41:18.769Z,14.70
2018-01-28T08:43:47.211Z,14.70
2018-01-28T08:46:15.530Z,14.70
2018-01-28T08:48:43.934Z,14.70
2018-01-28T08:51:12.358Z,14.70
2018-01-28T08:53:40.736Z,14.70
2018-01-28T08:56:09.065Z,14.70
2018-01-28T08:58:37.404Z,14.80
2018-01-28T09:01:06.203Z,14.80
2018-01-28T09:03:34.545Z,14.80
2018-01-28T09:06:02.890Z,14.80
2018-01-28T09:08:31.614Z,14.80
2018-01-28T09:11:00.201Z,14.80
2018-01-28T09:13:28.514Z,14.80
2018-01-28T09:15:56.896Z,14.80
2018-01-28T09:18:25.312Z,14.80
2018-01-28T09:20:54.074Z,14.90
2018-01-28T09:23:22.454Z,14.90
2018-01-28T09:25:50.785Z,15.00
2018-01-28T09:28:19.131Z,15.10
2018-01-28T09:30:47.510Z,15.40
2018-01-28T09:33:16.139Z,15.80
2018-01-28T09:35:44.485Z,16.20
2018-01-28T09:38:12.878Z,16.50
2018-01-28T09:40:42.246Z,16.90
2018-01-28T09:43:10.945Z,16.90
2018-01-28T09:45:39.552Z,17.00
2018-01-28T09:48:08.411Z,17.30
2018-01-28T09:50:36.962Z,17.30
2018-01-28T09:53:05.274Z,17.40
2018-01-28T09:55:33.653Z,17.50
2018-01-28T09:58:02.029Z,17.70
2018-01-28T10:00:30.343Z,17.80
2018-01-28T10:02:59.143Z,17.80
2018-01-28T10:05:27.489Z,17.80
2018-01-28T10:07:55.826Z,17.80
2018-01-28T10:10:24.184Z,17.80
2018-01-28T10:12:52.547Z,17.70
2018-01-28T10:15:21.225Z,17.70
2018-01-28T10:17:49.950Z,17.80
2018-01-28T10:20:18.290Z,17.90
2018-01-28T10:22:47.109Z,18.10
2018-01-28T10:25:15.750Z,18.10
2018-01-28T10:27:44.067Z,18.20
2018-01-28T10:30:12.426Z,18.30
2018-01-28T10:32:41.151Z,18.30
2018-01-28T10:35:09.778Z,18.30
2018-01-28T10:37:38.225Z,18.20
2018-01-28T10:40:06.561Z,18.20
2018-01-28T10:42:35.400Z,18.00
2018-01-28T10:45:03.850Z,18.00
2018-01-28T10:47:32.215Z,17.90
2018-01-28T10:50:00.552Z,17.80
2018-01-28T10:52:28.911Z,17.70
2018-01-28T10:54:57.402Z,17.70
2018-01-28T10:57:26.242Z,17.60
2018-01-28T10:59:55.982Z,17.40
2018-01-28T11:02:25.112Z,17.30
2018-01-28T11:04:53.480Z,17.30
2018-01-28T11:07:21.948Z,17.30
2018-01-28T11:09:50.310Z,17.20
2018-01-28T11:12:19.570Z,17.10
2018-01-28T11:14:48.327Z,17.00
2018-01-28T11:17:16.793Z,17.00
2018-01-28T11:19:45.174Z,16.90
2018-01-28T11:22:13.882Z,16.90
2018-01-28T11:24:42.224Z,16.80
2018-01-28T11:27:10.845Z,16.80
2018-01-28T11:29:39.220Z,16.80
2018-01-28T11:32:07.588Z,16.80
2018-01-28T11:34:35.978Z,16.80
2018-01-28T11:37:04.316Z,16.80
2018-01-28T11:39:32.694Z,16.60
2018-01-28T11:42:01.074Z,15.40
2018-01-28T11:44:29.393Z,14.40
2018-01-28T11:46:57.728Z,13.40
2018-01-28T11:49:26.882Z,13.00
2018-01-28T11:51:55.649Z,13.30
2018-01-28T11:54:24.416Z,13.50
2018-01-28T11:56:52.794Z,13.50
2018-01-28T11:59:21.143Z,13.70
2018-01-28T12:01:49.526Z,13.80
2018-01-28T12:04:17.855Z,13.90
2018-01-28T12:06:46.609Z,14.10
2018-01-28T12:09:14.981Z,14.10
2018-01-28T12:11:43.347Z,14.20
2018-01-28T12:14:11.682Z,14.20
2018-01-28T12:16:40.434Z,14.40
2018-01-28T12:19:08.798Z,14.40
2018-01-28T12:21:37.531Z,14.50
2018-01-28T12:24:05.849Z,14.50
2018-01-28T12:26:34.238Z,14.60
2018-01-28T12:29:02.586Z,14.60
2018-01-28T12:31:30.936Z,14.60
2018-01-28T12:33:59.330Z,14.60
2018-01-28T12:36:27.662Z,14.60
2018-01-28T12:38:56.034Z,14.60
2018-01-28T12:41:24.377Z,14.60
2018-01-28T12:43:52.702Z,14.50
2018-01-28T12:46:21.076Z,14.60
2018-01-28T12:48:49.459Z,14.50
2018-01-28T12:51:17.830Z,14.50
2018-01-28T12:53:46.269Z,14.50
2018-01-28T12:56:14.674Z,14.50
2018-01-28T12:58:42.998Z,14.40
2018-01-28T13:01:11.796Z,14.50
2018-01-28T13:03:40.185Z,14.50
2018-01-28T13:06:08.534Z,14.50
2018-01-28T13:08:36.941Z,14.50
2018-01-28T13:11:05.338Z,14.40
2018-01-28T13:13:35.060Z,14.40
2018-01-28T13:16:03.638Z,14.40
2018-01-28T13:18:32.010Z,14.40
2018-01-28T13:21:00.426Z,14.40
2018-01-28T13:23:28.906Z,14.40
2018-01-28T13:25:57.370Z,14.40
2018-01-28T13:28:25.734Z,14.40
2018-01-28T13:30:54.115Z,14.40
2018-01-28T13:33:22.494Z,14.60
2018-01-28T13:35:51.133Z,14.80
2018-01-28T13:38:19.518Z,15.00
2018-01-28T13:40:48.359Z,15.50
2018-01-28T13:43:16.770Z,15.50
2018-01-28T13:45:45.209Z,15.70
2018-01-28T13:48:13.559Z,15.90
2018-01-28T13:50:42.312Z,16.30
2018-01-28T13:53:10.906Z,16.30
2018-01-28T13:55:39.322Z,16.50
2018-01-28T13:58:07.680Z,16.60
2018-01-28T14:00:36.408Z,16.80
2018-01-28T14:03:04.766Z,16.80
2018-01-28T14:05:33.109Z,17.00
2018-01-28T14:08:01.868Z,17.10
2018-01-28T14:10:30.248Z,17.20
2018-01-28T14:12:58.600Z,17.20
2018-01-28T14:15:26.949Z,17.30
2018-01-28T14:17:55.702Z,17.40
2018-01-28T14:20:24.041Z,17.40
2018-01-28T14:22:52.497Z,17.40
2018-01-28T14:25:20.877Z,17.40
2018-01-28T14:27:49.261Z,17.40
2018-01-28T14:30:17.630Z,17.40
2018-01-28T14:32:46.393Z,17.40
2018-01-28T14:35:14.851Z,17.40
2018-01-28T14:37:43.206Z,17.40
2018-01-28T14:40:11.573Z,17.40
2018-01-28T14:42:40.226Z,17.40
2018-01-28T14:45:08.989Z,17.40
2018-01-28T14:47:37.341Z,17.40
2018-01-28T14:50:05.686Z,17.40
2018-01-28T14:52:34.026Z,17.50
2018-01-28T14:55:02.493Z,17.60
2018-01-28T14:57:31.111Z,17.60
2018-01-28T14:59:59.854Z,17.70
2018-01-28T15:02:28.202Z,17.70
2018-01-28T15:04:56.630Z,17.70
2018-01-28T15:07:25.449Z,17.80
2018-01-28T15:09:54.172Z,17.80
2018-01-28T15:12:22.670Z,17.80
2018-01-28T15:14:51.011Z,17.80
2018-01-28T15:17:19.516Z,17.80
2018-01-28T15:19:47.934Z,17.90
2018-01-28T15:22:16.298Z,17.90
2018-01-28T15:24:45.073Z,17.90
2018-01-28T15:27:13.517Z,17.90
2018-01-28T15:29:41.900Z,17.80
2018-01-28T15:32:10.219Z,17.80
2018-01-28T15:34:38.592Z,17.80
2018-01-28T15:37:07.074Z,17.80
2018-01-28T15:39:35.475Z,17.80
2018-01-28T15:42:03.838Z,17.90
2018-01-28T15:44:32.188Z,18.00
2018-01-28T15:47:00.560Z,18.00
2018-01-28T15:49:28.948Z,18.00
2018-01-28T15:51:57.313Z,18.00
2018-01-28T15:54:25.661Z,18.10
2018-01-28T15:56:54.454Z,18.10
2018-01-28T15:59:23.179Z,18.10
2018-01-28T16:01:51.518Z,18.10
2018-01-28T16:04:20.293Z,18.10
2018-01-28T16:06:49.015Z,18.10
2018-01-28T16:09:17.348Z,18.10
2018-01-28T16:11:46.251Z,18.10
2018-01-28T16:14:15.340Z,18.10
2018-01-28T16:16:44.121Z,18.10
2018-01-28T16:19:12.456Z,18.10
2018-01-28T16:21:40.824Z,18.20
2018-01-28T16:24:09.218Z,18.10
2018-01-28T16:26:37.550Z,18.10
2018-01-28T16:29:06.312Z,18.10
2018-01-28T16:31:34.638Z,18.10
2018-01-28T16:34:03.059Z,18.10
2018-01-28T16:36:31.838Z,18.20
2018-01-28T16:39:00.178Z,18.20
2018-01-28T16:41:28.551Z,18.10
2018-01-28T16:43:56.877Z,18.00
2018-01-28T16:46:25.209Z,18.00
2018-01-28T16:48:53.588Z,18.00
2018-01-28T16:51:21.981Z,18.00
2018-01-28T16:53:50.310Z,17.90
2018-01-28T16:56:18.661Z,17.70
2018-01-28T16:58:47.273Z,17.60
2018-01-28T17:01:15.601Z,17.60
2018-01-28T17:03:43.923Z,17.60
2018-01-28T17:06:12.285Z,17.70
2018-01-28T17:08:40.651Z,17.70
2018-01-28T17:11:08.981Z,17.80
2018-01-28T17:13:37.407Z,17.70
2018-01-28T17:16:06.949Z,17.60
2018-01-28T17:18:35.687Z,17.40
2018-01-28T17:21:04.038Z,17.40
2018-01-28T17:23:32.472Z,17.20
2018-01-28T17:26:00.836Z,17.00
2018-01-28T17:28:29.186Z,16.90
2018-01-28T17:30:57.558Z,16.80
2018-01-28T17:33:25.903Z,16.70
2018-01-28T17:35:54.265Z,16.50
2018-01-28T17:38:22.946Z,16.40
2018-01-28T17:40:51.270Z,16.40
2018-01-28T17:43:19.742Z,16.30
2018-01-28T17:45:48.517Z,16.20
2018-01-28T17:48:16.878Z,16.20
2018-01-28T17:50:46.196Z,16.00
2018-01-28T17:53:14.970Z,16.00
2018-01-28T17:55:43.438Z,16.00
2018-01-28T17:58:11.834Z,16.00
2018-01-28T18:00:40.208Z,16.00
2018-01-28T18:03:08.613Z,15.90
2018-01-28T18:05:37.522Z,15.70
2018-01-28T18:08:05.966Z,15.70
2018-01-28T18:10:34.742Z,15.70
2018-01-28T18:13:03.138Z,15.70
2018-01-28T18:15:31.937Z,15.70
2018-01-28T18:18:00.301Z,15.70
2018-01-28T18:20:28.911Z,15.60
2018-01-28T18:22:57.306Z,15.60
2018-01-28T18:25:25.660Z,15.60
2018-01-28T18:27:54.026Z,15.50
2018-01-28T18:30:22.755Z,15.50
2018-01-28T18:32:51.093Z,15.50
2018-01-28T18:35:19.830Z,15.50
2018-01-28T18:37:48.228Z,15.50
2018-01-28T18:40:16.585Z,15.50
2018-01-28T18:42:44.998Z,15.40
2018-01-28T18:45:14.110Z,15.30
2018-01-28T18:47:42.898Z,15.30
2018-01-28T18:50:11.667Z,15.20
2018-01-28T18:52:40.048Z,15.20
2018-01-28T18:55:08.383Z,15.20
2018-01-28T18:57:36.738Z,15.20
2018-01-28T19:00:05.147Z,15.20
2018-01-28T19:02:33.508Z,15.20
2018-01-28T19:05:01.837Z,15.20
2018-01-28T19:07:30.218Z,15.20
2018-01-28T19:09:58.579Z,15.20
2018-01-28T19:12:27.060Z,15.20
2018-01-28T19:14:55.402Z,15.20
2018-01-28T19:17:23.761Z,15.10
2018-01-28T19:19:52.255Z,15.20
2018-01-28T19:22:20.656Z,15.20
2018-01-28T19:24:49.033Z,15.10
2018-01-28T19:27:17.381Z,15.20
2018-01-28T19:29:45.812Z,15.10
2018-01-28T19:32:14.297Z,15.20
2018-01-28T19:34:42.666Z,15.20
2018-01-28T19:37:11.372Z,15.20
2018-01-28T19:39:39.788Z,15.00
2018-01-28T19:42:08.446Z,15.00
2018-01-28T19:44:36.841Z,15.00
2018-01-28T19:47:05.181Z,14.90
2018-01-28T19:49:33.803Z,14.80
2018-01-28T19:52:02.201Z,14.80
2018-01-28T19:54:30.552Z,14.80
2018-01-28T19:56:59.380Z,14.90
2018-01-28T19:59:28.089Z,14.90
2018-01-28T20:01:56.490Z,14.90
2018-01-28T20:04:24.820Z,14.90
2018-01-28T20:06:53.244Z,14.90
2018-01-28T20:09:22.018Z,14.80
2018-01-28T20:11:50.523Z,14.90
2018-01-28T20:14:18.923Z,14.80
2018-01-28T20:16:48.012Z,14.80
2018-01-28T20:19:16.358Z,14.80
2018-01-28T20:21:44.742Z,14.80
2018-01-28T20:24:13.126Z,14.70
2018-01-28T20:26:41.484Z,14.60
2018-01-28T20:29:09.841Z,14.60
2018-01-28T20:31:38.696Z,14.60
2018-01-28T20:34:07.689Z,14.50
2018-01-28T20:36:36.042Z,14.60
2018-01-28T20:39:04.429Z,14.60
2018-01-28T20:41:32.767Z,14.70
2018-01-28T20:44:01.150Z,14.80
2018-01-28T20:46:29.628Z,15.00
2018-01-28T20:48:58.550Z,15.10
2018-01-28T20:51:27.242Z,15.10
2018-01-28T20:53:55.634Z,15.20
2018-01-28T20:56:25.015Z,15.30
2018-01-28T20:58:53.391Z,15.30
2018-01-28T21:01:21.754Z,15.30
2018-01-28T21:03:54.497Z,15.40
2018-01-28T21:06:22.883Z,15.40
2018-01-28T21:08:51.324Z,15.40
2018-01-28T21:11:20.042Z,15.50
2018-01-28T21:13:48.663Z,15.50
2018-01-28T21:16:17.090Z,15.50
2018-01-28T21:18:45.501Z,15.50
2018-01-28T21:21:15.625Z,15.50
2018-01-28T21:23:44.414Z,15.50
2018-01-28T21:26:13.729Z,15.50
2018-01-28T21:28:42.360Z,15.50
2018-01-28T21:31:10.738Z,15.60
2018-01-28T21:33:40.317Z,15.60
2018-01-28T21:36:09.116Z,15.60
2018-01-28T21:38:38.086Z,15.60
2018-01-28T21:41:06.449Z,15.60
2018-01-28T21:43:34.817Z,15.60
2018-01-28T21:46:03.453Z,15.60
2018-01-28T21:48:32.173Z,15.60
2018-01-28T21:51:00.817Z,15.60
2018-01-28T21:53:29.162Z,15.60
2018-01-28T21:55:57.501Z,15.60
2018-01-28T21:58:25.839Z,15.60
2018-01-28T22:00:54.589Z,15.60
2018-01-28T22:03:23.049Z,15.60
2018-01-28T22:05:51.404Z,15.60
2018-01-28T22:08:20.136Z,15.60
2018-01-28T22:10:48.625Z,15.60
2018-01-28T22:13:17.010Z,15.60
2018-01-28T22:15:45.703Z,15.60
2018-01-28T22:18:14.312Z,15.60
2018-01-28T22:20:42.710Z,15.60
2018-01-28T22:23:11.785Z,15.60
2018-01-28T22:25:40.565Z,15.60
2018-01-28T22:28:08.889Z,15.60
2018-01-28T22:30:37.286Z,15.60
2018-01-28T22:33:05.713Z,15.60
2018-01-28T22:35:34.074Z,15.60
2018-01-28T22:38:02.462Z,15.60
2018-01-28T22:40:30.778Z,15.60
2018-01-28T22:42:59.124Z,15.60
2018-01-28T22:45:27.854Z,15.60
2018-01-28T22:47:56.490Z,15.60
2018-01-28T22:50:24.847Z,15.60
2018-01-28T22:52:53.212Z,15.60
2018-01-28T22:55:21.558Z,15.70
2018-01-28T22:57:49.897Z,15.70
2018-01-28T23:00:18.262Z,15.70
2018-01-28T23:02:47.187Z,15.70
2018-01-28T23:05:16.056Z,15.70
2018-01-28T23:07:44.532Z,15.70
2018-01-28T23:10:12.853Z,15.70
2018-01-28T23:12:41.238Z,15.70
2018-01-28T23:15:09.580Z,15.70
2018-01-28T23:17:38.322Z,15.70
2018-01-28T23:20:06.717Z,15.70
2018-01-28T23:22:35.095Z,15.70
2018-01-28T23:25:03.415Z,15.70
2018-01-28T23:27:31.769Z,15.70
2018-01-28T23:30:00.175Z,15.70
2018-01-28T23:32:28.502Z,15.70
2018-01-28T23:34:56.883Z,15.70
2018-01-28T23:37:25.225Z,15.70
2018-01-28T23:39:53.857Z,15.70
2018-01-28T23:42:22.204Z,15.70
2018-01-28T23:44:50.540Z,15.70
2018-01-28T23:47:19.272Z,15.70
2018-01-28T23:49:47.638Z,15.70
2018-01-28T23:52:15.975Z,15.70
2018-01-28T23:54:44.353Z,15.70
2018-01-28T23:57:13.142Z,15.70
2018-01-28T23:59:41.493Z,15.70
